sensor_id;sensor_type;location;lat;lon;timestamp;P1;durP1;ratioP1;P2;durP2;ratioP2
6825;SDS011;3451;52.476;13.316;2022-09-12T00:01:14;5.20;;;3.30;;
6825;SDS011;3451;52.476;13.316;2022-09-12T00:03:41;4.07;;;3.50;;
6825;SDS011;3451;52.476;13.316;2022-09-12T00:06:17;3.90;;;3.10;;
6825;SDS011;3451;52.476;13.316;2022-09-12T00:08:48;3.27;;;2.97;;
6825;SDS011;3451;52.476;13.316;2022-09-12T00:11:14;3.70;;;3.00;;
6825;SDS011;3451;52.476;13.316;2022-09-12T00:13:41;3.87;;;3.00;;
6825;SDS011;3451;52.476;13.316;2022-09-12T00:16:13;3.97;;;3.30;;
6825;SDS011;3451;52.476;13.316;2022-09-12T00:18:40;4.70;;;2.80;;
6825;SDS011;3451;52.476;13.316;2022-09-12T00:21:06;3.83;;;3.17;;
6825;SDS011;3451;52.476;13.316;2022-09-12T00:23:32;4.77;;;3.37;;
6825;SDS011;3451;52.476;13.316;2022-09-12T00:25:59;4.63;;;2.97;;
6825;SDS011;3451;52.476;13.316;2022-09-12T00:28:25;3.33;;;2.97;;
6825;SDS011;3451;52.476;13.316;2022-09-12T00:30:52;3.93;;;3.00;;
6825;SDS011;3451;52.476;13.316;2022-09-12T00:33:18;4.23;;;3.40;;
6825;SDS011;3451;52.476;13.316;2022-09-12T00:35:45;5.97;;;3.07;;
6825;SDS011;3451;52.476;13.316;2022-09-12T00:38:12;3.80;;;3.10;;
6825;SDS011;3451;52.476;13.316;2022-09-12T00:40:38;4.80;;;3.13;;
6825;SDS011;3451;52.476;13.316;2022-09-12T00:43:05;4.03;;;3.43;;
6825;SDS011;3451;52.476;13.316;2022-09-12T00:45:31;6.03;;;3.37;;
6825;SDS011;3451;52.476;13.316;2022-09-12T00:47:59;3.63;;;2.93;;
6825;SDS011;3451;52.476;13.316;2022-09-12T00:50:27;3.93;;;2.93;;
6825;SDS011;3451;52.476;13.316;2022-09-12T00:52:57;4.27;;;3.27;;
6825;SDS011;3451;52.476;13.316;2022-09-12T00:55:26;4.60;;;3.40;;
6825;SDS011;3451;52.476;13.316;2022-09-12T00:57:57;3.37;;;3.00;;
6825;SDS011;3451;52.476;13.316;2022-09-12T01:00:25;4.10;;;3.07;;
6825;SDS011;3451;52.476;13.316;2022-09-12T01:02:53;5.17;;;3.10;;
6825;SDS011;3451;52.476;13.316;2022-09-12T01:05:22;3.30;;;2.97;;
6825;SDS011;3451;52.476;13.316;2022-09-12T01:07:49;3.77;;;3.00;;
6825;SDS011;3451;52.476;13.316;2022-09-12T01:10:17;4.00;;;3.20;;
6825;SDS011;3451;52.476;13.316;2022-09-12T01:12:44;3.43;;;3.13;;
6825;SDS011;3451;52.476;13.316;2022-09-12T01:15:11;4.90;;;3.07;;
6825;SDS011;3451;52.476;13.316;2022-09-12T01:17:41;3.20;;;2.90;;
6825;SDS011;3451;52.476;13.316;2022-09-12T01:20:18;4.60;;;3.20;;
6825;SDS011;3451;52.476;13.316;2022-09-12T01:28:12;5.60;;;3.50;;
6825;SDS011;3451;52.476;13.316;2022-09-12T01:30:48;3.83;;;3.27;;
6825;SDS011;3451;52.476;13.316;2022-09-12T01:35:59;3.17;;;2.87;;
6825;SDS011;3451;52.476;13.316;2022-09-12T01:38:38;3.77;;;3.07;;
6825;SDS011;3451;52.476;13.316;2022-09-12T01:43:49;4.03;;;3.43;;
6825;SDS011;3451;52.476;13.316;2022-09-12T01:46:20;4.23;;;3.40;;
6825;SDS011;3451;52.476;13.316;2022-09-12T01:48:53;6.87;;;3.77;;
6825;SDS011;3451;52.476;13.316;2022-09-12T01:51:26;4.10;;;3.50;;
6825;SDS011;3451;52.476;13.316;2022-09-12T01:54:00;3.57;;;3.07;;
6825;SDS011;3451;52.476;13.316;2022-09-12T01:56:30;4.40;;;3.30;;
6825;SDS011;3451;52.476;13.316;2022-09-12T01:59:03;3.73;;;3.20;;
6825;SDS011;3451;52.476;13.316;2022-09-12T02:01:31;4.83;;;3.37;;
6825;SDS011;3451;52.476;13.316;2022-09-12T02:04:09;3.87;;;3.47;;
6825;SDS011;3451;52.476;13.316;2022-09-12T02:06:39;4.40;;;3.47;;
6825;SDS011;3451;52.476;13.316;2022-09-12T02:09:10;4.40;;;3.30;;
6825;SDS011;3451;52.476;13.316;2022-09-12T02:11:39;3.60;;;3.30;;
6825;SDS011;3451;52.476;13.316;2022-09-12T02:14:14;3.77;;;3.37;;
6825;SDS011;3451;52.476;13.316;2022-09-12T02:16:45;3.50;;;3.17;;
6825;SDS011;3451;52.476;13.316;2022-09-12T02:19:23;5.03;;;3.70;;
6825;SDS011;3451;52.476;13.316;2022-09-12T02:21:51;3.93;;;3.50;;
6825;SDS011;3451;52.476;13.316;2022-09-12T02:24:18;3.87;;;3.37;;
6825;SDS011;3451;52.476;13.316;2022-09-12T02:26:46;3.73;;;3.43;;
6825;SDS011;3451;52.476;13.316;2022-09-12T02:32:05;4.10;;;3.67;;
6825;SDS011;3451;52.476;13.316;2022-09-12T02:34:41;3.27;;;2.97;;
6825;SDS011;3451;52.476;13.316;2022-09-12T02:39:51;4.03;;;3.63;;
6825;SDS011;3451;52.476;13.316;2022-09-12T02:42:20;5.97;;;3.60;;
6825;SDS011;3451;52.476;13.316;2022-09-12T02:44:47;5.70;;;3.97;;
6825;SDS011;3451;52.476;13.316;2022-09-12T02:47:18;4.90;;;3.50;;
6825;SDS011;3451;52.476;13.316;2022-09-12T02:49:45;4.30;;;3.70;;
6825;SDS011;3451;52.476;13.316;2022-09-12T02:52:12;5.40;;;3.77;;
6825;SDS011;3451;52.476;13.316;2022-09-12T02:54:38;6.40;;;3.90;;
6825;SDS011;3451;52.476;13.316;2022-09-12T02:57:13;6.40;;;3.57;;
6825;SDS011;3451;52.476;13.316;2022-09-12T02:59:43;7.77;;;3.60;;
6825;SDS011;3451;52.476;13.316;2022-09-12T03:02:26;4.60;;;3.70;;
6825;SDS011;3451;52.476;13.316;2022-09-12T03:07:52;3.90;;;3.33;;
6825;SDS011;3451;52.476;13.316;2022-09-12T03:13:07;4.03;;;3.60;;
6825;SDS011;3451;52.476;13.316;2022-09-12T03:15:57;4.53;;;3.47;;
6825;SDS011;3451;52.476;13.316;2022-09-12T03:18:30;6.33;;;3.50;;
6825;SDS011;3451;52.476;13.316;2022-09-12T03:21:03;3.83;;;3.33;;
6825;SDS011;3451;52.476;13.316;2022-09-12T03:23:39;3.60;;;3.17;;
6825;SDS011;3451;52.476;13.316;2022-09-12T03:26:10;4.80;;;3.27;;
6825;SDS011;3451;52.476;13.316;2022-09-12T03:28:38;4.83;;;3.30;;
6825;SDS011;3451;52.476;13.316;2022-09-12T03:31:15;3.80;;;3.30;;
6825;SDS011;3451;52.476;13.316;2022-09-12T03:33:42;4.10;;;3.47;;
6825;SDS011;3451;52.476;13.316;2022-09-12T03:36:15;5.23;;;3.20;;
6825;SDS011;3451;52.476;13.316;2022-09-12T03:38:42;5.30;;;3.30;;
6825;SDS011;3451;52.476;13.316;2022-09-12T03:41:08;4.23;;;3.80;;
6825;SDS011;3451;52.476;13.316;2022-09-12T03:43:34;4.27;;;3.37;;
6825;SDS011;3451;52.476;13.316;2022-09-12T03:46:01;4.27;;;3.47;;
6825;SDS011;3451;52.476;13.316;2022-09-12T03:48:27;4.10;;;3.57;;
6825;SDS011;3451;52.476;13.316;2022-09-12T03:50:53;4.23;;;3.17;;
6825;SDS011;3451;52.476;13.316;2022-09-12T03:53:20;4.47;;;3.20;;
6825;SDS011;3451;52.476;13.316;2022-09-12T03:55:46;5.23;;;3.53;;
6825;SDS011;3451;52.476;13.316;2022-09-12T03:58:12;7.63;;;3.33;;
6825;SDS011;3451;52.476;13.316;2022-09-12T04:00:38;4.90;;;3.40;;
6825;SDS011;3451;52.476;13.316;2022-09-12T04:03:06;5.17;;;3.70;;
6825;SDS011;3451;52.476;13.316;2022-09-12T04:05:32;3.70;;;3.27;;
6825;SDS011;3451;52.476;13.316;2022-09-12T04:07:58;5.73;;;3.67;;
6825;SDS011;3451;52.476;13.316;2022-09-12T04:10:24;5.37;;;3.60;;
6825;SDS011;3451;52.476;13.316;2022-09-12T04:12:50;5.07;;;3.53;;
6825;SDS011;3451;52.476;13.316;2022-09-12T04:15:17;4.63;;;3.80;;
6825;SDS011;3451;52.476;13.316;2022-09-12T04:17:43;6.20;;;3.80;;
6825;SDS011;3451;52.476;13.316;2022-09-12T04:20:09;4.57;;;3.53;;
6825;SDS011;3451;52.476;13.316;2022-09-12T04:22:36;5.23;;;3.90;;
6825;SDS011;3451;52.476;13.316;2022-09-12T04:25:02;4.20;;;3.70;;
6825;SDS011;3451;52.476;13.316;2022-09-12T04:27:29;4.40;;;4.00;;
6825;SDS011;3451;52.476;13.316;2022-09-12T04:29:55;4.80;;;3.80;;
6825;SDS011;3451;52.476;13.316;2022-09-12T04:32:23;6.97;;;4.07;;
6825;SDS011;3451;52.476;13.316;2022-09-12T04:34:49;8.60;;;3.80;;
6825;SDS011;3451;52.476;13.316;2022-09-12T04:37:17;4.63;;;4.17;;
6825;SDS011;3451;52.476;13.316;2022-09-12T04:39:43;4.80;;;4.00;;
6825;SDS011;3451;52.476;13.316;2022-09-12T04:42:10;5.40;;;4.27;;
6825;SDS011;3451;52.476;13.316;2022-09-12T04:44:36;4.10;;;3.70;;
6825;SDS011;3451;52.476;13.316;2022-09-12T04:47:02;5.77;;;4.30;;
6825;SDS011;3451;52.476;13.316;2022-09-12T04:49:29;5.73;;;4.23;;
6825;SDS011;3451;52.476;13.316;2022-09-12T04:51:55;6.73;;;4.50;;
6825;SDS011;3451;52.476;13.316;2022-09-12T04:54:21;5.00;;;4.37;;
6825;SDS011;3451;52.476;13.316;2022-09-12T04:56:48;4.40;;;3.97;;
6825;SDS011;3451;52.476;13.316;2022-09-12T04:59:19;12.23;;;4.33;;
6825;SDS011;3451;52.476;13.316;2022-09-12T05:01:45;5.37;;;4.40;;
6825;SDS011;3451;52.476;13.316;2022-09-12T05:04:11;4.90;;;4.40;;
6825;SDS011;3451;52.476;13.316;2022-09-12T05:06:38;6.80;;;4.70;;
6825;SDS011;3451;52.476;13.316;2022-09-12T05:09:06;6.30;;;4.50;;
6825;SDS011;3451;52.476;13.316;2022-09-12T05:11:36;5.63;;;4.27;;
6825;SDS011;3451;52.476;13.316;2022-09-12T05:14:23;5.87;;;4.87;;
6825;SDS011;3451;52.476;13.316;2022-09-12T05:16:49;5.50;;;4.90;;
6825;SDS011;3451;52.476;13.316;2022-09-12T05:19:15;8.83;;;5.10;;
6825;SDS011;3451;52.476;13.316;2022-09-12T05:21:42;6.67;;;4.60;;
6825;SDS011;3451;52.476;13.316;2022-09-12T05:24:08;7.93;;;4.77;;
6825;SDS011;3451;52.476;13.316;2022-09-12T05:26:35;6.70;;;4.70;;
6825;SDS011;3451;52.476;13.316;2022-09-12T05:29:02;7.53;;;5.23;;
6825;SDS011;3451;52.476;13.316;2022-09-12T05:31:29;8.43;;;5.10;;
6825;SDS011;3451;52.476;13.316;2022-09-12T05:33:55;6.80;;;4.63;;
6825;SDS011;3451;52.476;13.316;2022-09-12T05:36:26;6.80;;;5.00;;
6825;SDS011;3451;52.476;13.316;2022-09-12T05:38:52;6.30;;;5.07;;
6825;SDS011;3451;52.476;13.316;2022-09-12T05:41:20;13.27;;;5.33;;
6825;SDS011;3451;52.476;13.316;2022-09-12T05:43:51;9.90;;;5.23;;
6825;SDS011;3451;52.476;13.316;2022-09-12T05:46:18;9.40;;;5.63;;
6825;SDS011;3451;52.476;13.316;2022-09-12T05:48:45;10.10;;;5.53;;
6825;SDS011;3451;52.476;13.316;2022-09-12T05:51:13;6.20;;;5.27;;
6825;SDS011;3451;52.476;13.316;2022-09-12T05:53:42;8.27;;;5.13;;
6825;SDS011;3451;52.476;13.316;2022-09-12T05:56:09;12.47;;;5.50;;
6825;SDS011;3451;52.476;13.316;2022-09-12T05:58:36;10.70;;;5.93;;
6825;SDS011;3451;52.476;13.316;2022-09-12T06:01:04;8.33;;;6.00;;
6825;SDS011;3451;52.476;13.316;2022-09-12T06:03:36;8.20;;;5.90;;
6825;SDS011;3451;52.476;13.316;2022-09-12T06:06:04;6.53;;;5.67;;
6825;SDS011;3451;52.476;13.316;2022-09-12T06:08:31;7.67;;;5.70;;
6825;SDS011;3451;52.476;13.316;2022-09-12T06:11:01;8.47;;;6.00;;
6825;SDS011;3451;52.476;13.316;2022-09-12T06:13:32;13.13;;;5.83;;
6825;SDS011;3451;52.476;13.316;2022-09-12T06:16:02;8.87;;;5.97;;
6825;SDS011;3451;52.476;13.316;2022-09-12T06:18:30;8.93;;;5.83;;
6825;SDS011;3451;52.476;13.316;2022-09-12T06:20:57;7.83;;;5.87;;
6825;SDS011;3451;52.476;13.316;2022-09-12T06:23:26;8.77;;;6.03;;
6825;SDS011;3451;52.476;13.316;2022-09-12T06:25:52;6.57;;;5.63;;
6825;SDS011;3451;52.476;13.316;2022-09-12T06:28:20;8.10;;;6.00;;
6825;SDS011;3451;52.476;13.316;2022-09-12T06:30:46;7.80;;;5.20;;
6825;SDS011;3451;52.476;13.316;2022-09-12T06:33:14;7.53;;;6.00;;
6825;SDS011;3451;52.476;13.316;2022-09-12T06:35:40;8.53;;;5.63;;
6825;SDS011;3451;52.476;13.316;2022-09-12T06:38:07;9.50;;;5.50;;
6825;SDS011;3451;52.476;13.316;2022-09-12T06:40:39;11.13;;;5.67;;
6825;SDS011;3451;52.476;13.316;2022-09-12T06:43:06;7.47;;;5.07;;
6825;SDS011;3451;52.476;13.316;2022-09-12T06:45:32;8.87;;;5.40;;
6825;SDS011;3451;52.476;13.316;2022-09-12T06:47:58;7.83;;;5.53;;
6825;SDS011;3451;52.476;13.316;2022-09-12T06:50:25;9.27;;;5.27;;
6825;SDS011;3451;52.476;13.316;2022-09-12T06:52:52;9.03;;;5.30;;
6825;SDS011;3451;52.476;13.316;2022-09-12T06:55:18;6.87;;;4.73;;
6825;SDS011;3451;52.476;13.316;2022-09-12T06:57:50;7.43;;;5.10;;
6825;SDS011;3451;52.476;13.316;2022-09-12T07:00:17;7.77;;;5.03;;
6825;SDS011;3451;52.476;13.316;2022-09-12T07:02:43;5.73;;;4.30;;
6825;SDS011;3451;52.476;13.316;2022-09-12T07:05:09;5.27;;;4.43;;
6825;SDS011;3451;52.476;13.316;2022-09-12T07:07:36;6.00;;;4.43;;
6825;SDS011;3451;52.476;13.316;2022-09-12T07:10:03;9.52;;;4.80;;
6825;SDS011;3451;52.476;13.316;2022-09-12T07:12:29;4.50;;;4.10;;
6825;SDS011;3451;52.476;13.316;2022-09-12T07:14:55;5.47;;;4.18;;
6825;SDS011;3451;52.476;13.316;2022-09-12T07:17:22;8.02;;;3.85;;
6825;SDS011;3451;52.476;13.316;2022-09-12T07:19:48;6.15;;;4.00;;
6825;SDS011;3451;52.476;13.316;2022-09-12T07:22:14;6.50;;;3.58;;
6825;SDS011;3451;52.476;13.316;2022-09-12T07:24:40;6.18;;;4.07;;
6825;SDS011;3451;52.476;13.316;2022-09-12T07:27:07;4.90;;;3.20;;
6825;SDS011;3451;52.476;13.316;2022-09-12T07:29:33;4.43;;;3.10;;
6825;SDS011;3451;52.476;13.316;2022-09-12T07:32:03;3.67;;;3.30;;
6825;SDS011;3451;52.476;13.316;2022-09-12T07:34:30;3.55;;;3.25;;
6825;SDS011;3451;52.476;13.316;2022-09-12T07:36:56;4.90;;;3.35;;
6825;SDS011;3451;52.476;13.316;2022-09-12T07:39:23;5.50;;;3.20;;
6825;SDS011;3451;52.476;13.316;2022-09-12T07:41:49;6.65;;;3.33;;
6825;SDS011;3451;52.476;13.316;2022-09-12T07:44:16;6.70;;;3.10;;
6825;SDS011;3451;52.476;13.316;2022-09-12T07:46:42;3.70;;;3.33;;
6825;SDS011;3451;52.476;13.316;2022-09-12T07:49:10;4.32;;;3.00;;
6825;SDS011;3451;52.476;13.316;2022-09-12T07:51:37;3.45;;;2.72;;
6825;SDS011;3451;52.476;13.316;2022-09-12T07:54:06;2.50;;;2.30;;
6825;SDS011;3451;52.476;13.316;2022-09-12T07:56:32;3.42;;;2.42;;
6825;SDS011;3451;52.476;13.316;2022-09-12T07:59:04;4.13;;;2.70;;
6825;SDS011;3451;52.476;13.316;2022-09-12T08:01:30;2.70;;;2.50;;
6825;SDS011;3451;52.476;13.316;2022-09-12T08:03:57;3.08;;;2.78;;
6825;SDS011;3451;52.476;13.316;2022-09-12T08:06:24;6.25;;;3.05;;
6825;SDS011;3451;52.476;13.316;2022-09-12T08:08:51;4.95;;;2.60;;
6825;SDS011;3451;52.476;13.316;2022-09-12T08:11:18;3.08;;;2.40;;
6825;SDS011;3451;52.476;13.316;2022-09-12T08:13:45;5.30;;;2.25;;
6825;SDS011;3451;52.476;13.316;2022-09-12T08:16:17;4.30;;;2.22;;
6825;SDS011;3451;52.476;13.316;2022-09-12T08:18:46;3.38;;;2.20;;
6825;SDS011;3451;52.476;13.316;2022-09-12T08:23:41;5.25;;;2.30;;
6825;SDS011;3451;52.476;13.316;2022-09-12T08:26:08;2.83;;;2.17;;
6825;SDS011;3451;52.476;13.316;2022-09-12T08:28:35;3.50;;;2.40;;
6825;SDS011;3451;52.476;13.316;2022-09-12T08:31:11;3.08;;;2.20;;
6825;SDS011;3451;52.476;13.316;2022-09-12T08:33:38;2.33;;;2.00;;
6825;SDS011;3451;52.476;13.316;2022-09-12T08:36:05;3.22;;;2.10;;
6825;SDS011;3451;52.476;13.316;2022-09-12T08:38:33;2.75;;;2.15;;
6825;SDS011;3451;52.476;13.316;2022-09-12T08:41:03;2.37;;;1.60;;
6825;SDS011;3451;52.476;13.316;2022-09-12T08:43:37;2.53;;;1.55;;
6825;SDS011;3451;52.476;13.316;2022-09-12T08:46:10;3.93;;;1.50;;
6825;SDS011;3451;52.476;13.316;2022-09-12T08:48:38;2.47;;;1.60;;
6825;SDS011;3451;52.476;13.316;2022-09-12T08:51:08;3.92;;;1.83;;
6825;SDS011;3451;52.476;13.316;2022-09-12T08:53:36;2.40;;;1.70;;
6825;SDS011;3451;52.476;13.316;2022-09-12T08:56:02;3.07;;;1.40;;
6825;SDS011;3451;52.476;13.316;2022-09-12T08:58:30;1.83;;;1.40;;
6825;SDS011;3451;52.476;13.316;2022-09-12T09:01:11;3.07;;;1.33;;
6825;SDS011;3451;52.476;13.316;2022-09-12T09:06:28;4.33;;;1.30;;
6825;SDS011;3451;52.476;13.316;2022-09-12T09:09:03;1.80;;;1.07;;
6825;SDS011;3451;52.476;13.316;2022-09-12T09:11:36;1.50;;;1.10;;
6825;SDS011;3451;52.476;13.316;2022-09-12T09:17:12;1.70;;;1.08;;
6825;SDS011;3451;52.476;13.316;2022-09-12T09:19:41;3.47;;;1.30;;
6825;SDS011;3451;52.476;13.316;2022-09-12T09:22:26;3.10;;;1.10;;
6825;SDS011;3451;52.476;13.316;2022-09-12T09:24:57;1.60;;;0.90;;
6825;SDS011;3451;52.476;13.316;2022-09-12T09:27:26;2.13;;;1.20;;
6825;SDS011;3451;52.476;13.316;2022-09-12T09:30:16;2.53;;;1.00;;
6825;SDS011;3451;52.476;13.316;2022-09-12T09:32:43;2.37;;;1.40;;
6825;SDS011;3451;52.476;13.316;2022-09-12T09:35:21;2.23;;;1.23;;
6825;SDS011;3451;52.476;13.316;2022-09-12T09:37:58;4.63;;;1.20;;
6825;SDS011;3451;52.476;13.316;2022-09-12T09:40:45;2.17;;;1.00;;
6825;SDS011;3451;52.476;13.316;2022-09-12T09:43:19;2.07;;;1.03;;
6825;SDS011;3451;52.476;13.316;2022-09-12T09:45:50;4.23;;;1.20;;
6825;SDS011;3451;52.476;13.316;2022-09-12T09:48:18;2.20;;;1.20;;
6825;SDS011;3451;52.476;13.316;2022-09-12T09:50:46;2.03;;;1.10;;
6825;SDS011;3451;52.476;13.316;2022-09-12T09:53:20;2.03;;;1.10;;
6825;SDS011;3451;52.476;13.316;2022-09-12T09:55:48;3.90;;;1.40;;
6825;SDS011;3451;52.476;13.316;2022-09-12T09:58:31;1.73;;;1.00;;
6825;SDS011;3451;52.476;13.316;2022-09-12T10:01:01;2.00;;;1.10;;
6825;SDS011;3451;52.476;13.316;2022-09-12T10:03:31;1.30;;;1.00;;
6825;SDS011;3451;52.476;13.316;2022-09-12T10:06:05;2.00;;;1.10;;
6825;SDS011;3451;52.476;13.316;2022-09-12T10:08:35;1.23;;;1.07;;
6825;SDS011;3451;52.476;13.316;2022-09-12T10:13:42;1.13;;;0.90;;
6825;SDS011;3451;52.476;13.316;2022-09-12T10:16:20;3.13;;;0.90;;
6825;SDS011;3451;52.476;13.316;2022-09-12T10:18:48;2.30;;;1.20;;
6825;SDS011;3451;52.476;13.316;2022-09-12T10:21:26;2.60;;;1.20;;
6825;SDS011;3451;52.476;13.316;2022-09-12T10:26:39;4.30;;;1.30;;
6825;SDS011;3451;52.476;13.316;2022-09-12T10:29:09;2.50;;;1.30;;
6825;SDS011;3451;52.476;13.316;2022-09-12T10:31:47;2.77;;;1.00;;
6825;SDS011;3451;52.476;13.316;2022-09-12T10:34:19;6.63;;;3.43;;
6825;SDS011;3451;52.476;13.316;2022-09-12T10:36:46;3.57;;;1.30;;
6825;SDS011;3451;52.476;13.316;2022-09-12T10:39:16;1.30;;;1.00;;
6825;SDS011;3451;52.476;13.316;2022-09-12T10:41:43;1.73;;;1.00;;
6825;SDS011;3451;52.476;13.316;2022-09-12T10:44:14;4.17;;;0.90;;
6825;SDS011;3451;52.476;13.316;2022-09-12T10:46:41;2.27;;;1.13;;
6825;SDS011;3451;52.476;13.316;2022-09-12T10:49:18;1.63;;;0.80;;
6825;SDS011;3451;52.476;13.316;2022-09-12T10:51:46;1.90;;;1.10;;
6825;SDS011;3451;52.476;13.316;2022-09-12T10:54:15;2.70;;;1.00;;
6825;SDS011;3451;52.476;13.316;2022-09-12T10:59:49;1.10;;;0.97;;
6825;SDS011;3451;52.476;13.316;2022-09-12T11:02:28;1.67;;;0.97;;
6825;SDS011;3451;52.476;13.316;2022-09-12T11:05:10;3.07;;;1.10;;
6825;SDS011;3451;52.476;13.316;2022-09-12T11:07:42;2.07;;;0.90;;
6825;SDS011;3451;52.476;13.316;2022-09-12T11:20:50;1.40;;;1.17;;
6825;SDS011;3451;52.476;13.316;2022-09-12T11:24:22;1.33;;;1.00;;
6825;SDS011;3451;52.476;13.316;2022-09-12T11:26:23;1.93;;;1.00;;
6825;SDS011;3451;52.476;13.316;2022-09-12T11:29:13;1.10;;;0.80;;
6825;SDS011;3451;52.476;13.316;2022-09-12T11:31:53;1.77;;;0.90;;
6825;SDS011;3451;52.476;13.316;2022-09-12T11:34:35;1.77;;;1.00;;
6825;SDS011;3451;52.476;13.316;2022-09-12T11:39:43;1.47;;;0.90;;
6825;SDS011;3451;52.476;13.316;2022-09-12T11:42:13;3.70;;;1.00;;
6825;SDS011;3451;52.476;13.316;2022-09-12T11:44:42;1.30;;;0.93;;
6825;SDS011;3451;52.476;13.316;2022-09-12T11:47:11;2.10;;;0.80;;
6825;SDS011;3451;52.476;13.316;2022-09-12T11:49:43;2.63;;;1.00;;
6825;SDS011;3451;52.476;13.316;2022-09-12T11:52:15;1.40;;;0.77;;
6825;SDS011;3451;52.476;13.316;2022-09-12T11:54:43;3.70;;;1.20;;
6825;SDS011;3451;52.476;13.316;2022-09-12T11:57:19;2.63;;;0.90;;
6825;SDS011;3451;52.476;13.316;2022-09-12T11:59:51;2.53;;;0.93;;
6825;SDS011;3451;52.476;13.316;2022-09-12T12:02:29;2.63;;;0.70;;
6825;SDS011;3451;52.476;13.316;2022-09-12T12:05:01;1.63;;;0.90;;
6825;SDS011;3451;52.476;13.316;2022-09-12T12:07:39;1.20;;;0.80;;
6825;SDS011;3451;52.476;13.316;2022-09-12T12:10:20;1.10;;;0.90;;
6825;SDS011;3451;52.476;13.316;2022-09-12T12:12:47;2.00;;;0.80;;
6825;SDS011;3451;52.476;13.316;2022-09-12T12:15:14;1.67;;;0.70;;
6825;SDS011;3451;52.476;13.316;2022-09-12T12:17:41;0.70;;;0.70;;
6825;SDS011;3451;52.476;13.316;2022-09-12T12:20:13;0.70;;;0.70;;
6825;SDS011;3451;52.476;13.316;2022-09-12T12:22:51;1.93;;;0.80;;
6825;SDS011;3451;52.476;13.316;2022-09-12T12:27:57;1.40;;;0.80;;
6825;SDS011;3451;52.476;13.316;2022-09-12T12:37:58;1.63;;;1.03;;
6825;SDS011;3451;52.476;13.316;2022-09-12T12:40:25;1.37;;;0.90;;
6825;SDS011;3451;52.476;13.316;2022-09-12T12:42:56;1.43;;;0.90;;
6825;SDS011;3451;52.476;13.316;2022-09-12T12:47:54;1.17;;;0.90;;
6825;SDS011;3451;52.476;13.316;2022-09-12T12:50:22;0.87;;;0.80;;
6825;SDS011;3451;52.476;13.316;2022-09-12T12:52:52;2.00;;;0.90;;
6825;SDS011;3451;52.476;13.316;2022-09-12T12:55:22;1.30;;;0.90;;
6825;SDS011;3451;52.476;13.316;2022-09-12T12:57:55;1.60;;;0.70;;
6825;SDS011;3451;52.476;13.316;2022-09-12T13:02:55;2.87;;;1.00;;
6825;SDS011;3451;52.476;13.316;2022-09-12T13:05:23;1.33;;;1.00;;
6825;SDS011;3451;52.476;13.316;2022-09-12T13:07:53;4.27;;;1.03;;
6825;SDS011;3451;52.476;13.316;2022-09-12T13:10:21;1.20;;;1.00;;
6825;SDS011;3451;52.476;13.316;2022-09-12T13:12:48;3.23;;;1.17;;
6825;SDS011;3451;52.476;13.316;2022-09-12T13:15:43;1.30;;;0.97;;
6825;SDS011;3451;52.476;13.316;2022-09-12T13:18:16;3.53;;;1.20;;
6825;SDS011;3451;52.476;13.316;2022-09-12T13:20:52;3.60;;;1.00;;
6825;SDS011;3451;52.476;13.316;2022-09-12T13:23:23;2.10;;;1.10;;
6825;SDS011;3451;52.476;13.316;2022-09-12T13:25:51;2.13;;;1.50;;
6825;SDS011;3451;52.476;13.316;2022-09-12T13:34:03;0.97;;;0.87;;
6825;SDS011;3451;52.476;13.316;2022-09-12T13:39:13;2.10;;;1.03;;
6825;SDS011;3451;52.476;13.316;2022-09-12T13:44:25;1.70;;;1.37;;
6825;SDS011;3451;52.476;13.316;2022-09-12T13:46:52;1.40;;;0.90;;
6825;SDS011;3451;52.476;13.316;2022-09-12T13:49:37;1.20;;;0.90;;
6825;SDS011;3451;52.476;13.316;2022-09-12T13:52:05;5.00;;;1.10;;
6825;SDS011;3451;52.476;13.316;2022-09-12T13:54:32;2.73;;;1.10;;
6825;SDS011;3451;52.476;13.316;2022-09-12T13:56:59;1.37;;;1.03;;
6825;SDS011;3451;52.476;13.316;2022-09-12T13:59:25;1.10;;;1.00;;
6825;SDS011;3451;52.476;13.316;2022-09-12T14:01:51;1.13;;;1.00;;
6825;SDS011;3451;52.476;13.316;2022-09-12T14:04:19;1.97;;;0.93;;
6825;SDS011;3451;52.476;13.316;2022-09-12T14:07:12;1.20;;;1.10;;
6825;SDS011;3451;52.476;13.316;2022-09-12T14:09:40;2.27;;;1.10;;
6825;SDS011;3451;52.476;13.316;2022-09-12T14:12:14;5.03;;;1.30;;
6825;SDS011;3451;52.476;13.316;2022-09-12T14:14:47;1.50;;;1.00;;
6825;SDS011;3451;52.476;13.316;2022-09-12T14:17:22;2.10;;;1.10;;
6825;SDS011;3451;52.476;13.316;2022-09-12T14:19:50;3.50;;;1.00;;
6825;SDS011;3451;52.476;13.316;2022-09-12T14:22:17;1.20;;;1.00;;
6825;SDS011;3451;52.476;13.316;2022-09-12T14:24:45;1.57;;;1.10;;
6825;SDS011;3451;52.476;13.316;2022-09-12T14:27:16;1.07;;;0.93;;
6825;SDS011;3451;52.476;13.316;2022-09-12T14:29:43;2.00;;;1.00;;
6825;SDS011;3451;52.476;13.316;2022-09-12T14:32:17;2.83;;;1.10;;
6825;SDS011;3451;52.476;13.316;2022-09-12T14:37:30;2.13;;;0.90;;
6825;SDS011;3451;52.476;13.316;2022-09-12T14:39:57;2.83;;;1.03;;
6825;SDS011;3451;52.476;13.316;2022-09-12T14:42:25;1.67;;;1.20;;
6825;SDS011;3451;52.476;13.316;2022-09-12T14:44:56;2.17;;;1.00;;
6825;SDS011;3451;52.476;13.316;2022-09-12T14:47:24;3.20;;;1.07;;
6825;SDS011;3451;52.476;13.316;2022-09-12T14:49:51;2.97;;;1.30;;
6825;SDS011;3451;52.476;13.316;2022-09-12T14:52:24;1.60;;;1.00;;
6825;SDS011;3451;52.476;13.316;2022-09-12T14:54:55;3.87;;;1.30;;
6825;SDS011;3451;52.476;13.316;2022-09-12T14:57:38;7.33;;;1.30;;
6825;SDS011;3451;52.476;13.316;2022-09-12T15:00:15;1.30;;;1.10;;
6825;SDS011;3451;52.476;13.316;2022-09-12T15:02:46;1.40;;;1.20;;
6825;SDS011;3451;52.476;13.316;2022-09-12T15:05:25;2.70;;;1.00;;
6825;SDS011;3451;52.476;13.316;2022-09-12T15:07:52;2.53;;;1.00;;
6825;SDS011;3451;52.476;13.316;2022-09-12T15:10:21;2.10;;;1.10;;
6825;SDS011;3451;52.476;13.316;2022-09-12T15:12:49;7.73;;;1.23;;
6825;SDS011;3451;52.476;13.316;2022-09-12T15:15:16;2.00;;;1.00;;
6825;SDS011;3451;52.476;13.316;2022-09-12T15:17:43;1.90;;;1.17;;
6825;SDS011;3451;52.476;13.316;2022-09-12T15:20:09;3.83;;;1.40;;
6825;SDS011;3451;52.476;13.316;2022-09-12T15:22:36;1.53;;;1.00;;
6825;SDS011;3451;52.476;13.316;2022-09-12T15:25:03;1.27;;;1.10;;
6825;SDS011;3451;52.476;13.316;2022-09-12T15:27:30;4.77;;;1.23;;
6825;SDS011;3451;52.476;13.316;2022-09-12T15:29:56;2.07;;;1.20;;
6825;SDS011;3451;52.476;13.316;2022-09-12T15:32:28;1.67;;;1.10;;
6825;SDS011;3451;52.476;13.316;2022-09-12T15:34:55;2.67;;;1.17;;
6825;SDS011;3451;52.476;13.316;2022-09-12T15:37:22;6.00;;;1.43;;
6825;SDS011;3451;52.476;13.316;2022-09-12T15:39:48;2.53;;;1.07;;
6825;SDS011;3451;52.476;13.316;2022-09-12T15:42:16;1.77;;;1.03;;
6825;SDS011;3451;52.476;13.316;2022-09-12T15:44:42;3.37;;;1.30;;
6825;SDS011;3451;52.476;13.316;2022-09-12T15:47:09;3.00;;;1.33;;
6825;SDS011;3451;52.476;13.316;2022-09-12T15:49:36;1.60;;;1.20;;
6825;SDS011;3451;52.476;13.316;2022-09-12T15:52:03;2.00;;;1.30;;
6825;SDS011;3451;52.476;13.316;2022-09-12T15:54:29;2.73;;;1.30;;
6825;SDS011;3451;52.476;13.316;2022-09-12T15:56:55;1.93;;;1.20;;
6825;SDS011;3451;52.476;13.316;2022-09-12T15:59:21;1.73;;;1.20;;
6825;SDS011;3451;52.476;13.316;2022-09-12T16:01:48;2.10;;;1.20;;
6825;SDS011;3451;52.476;13.316;2022-09-12T16:04:18;1.57;;;1.13;;
6825;SDS011;3451;52.476;13.316;2022-09-12T16:06:45;2.37;;;1.60;;
6825;SDS011;3451;52.476;13.316;2022-09-12T16:09:11;2.60;;;1.30;;
6825;SDS011;3451;52.476;13.316;2022-09-12T16:11:41;2.47;;;1.30;;
6825;SDS011;3451;52.476;13.316;2022-09-12T16:14:08;2.70;;;1.40;;
6825;SDS011;3451;52.476;13.316;2022-09-12T16:16:35;1.57;;;1.30;;
6825;SDS011;3451;52.476;13.316;2022-09-12T16:19:02;2.90;;;1.50;;
6825;SDS011;3451;52.476;13.316;2022-09-12T16:21:28;4.67;;;1.63;;
6825;SDS011;3451;52.476;13.316;2022-09-12T16:23:54;1.80;;;1.30;;
6825;SDS011;3451;52.476;13.316;2022-09-12T16:26:21;1.90;;;1.50;;
6825;SDS011;3451;52.476;13.316;2022-09-12T16:28:52;2.40;;;1.40;;
6825;SDS011;3451;52.476;13.316;2022-09-12T16:31:19;2.53;;;1.57;;
6825;SDS011;3451;52.476;13.316;2022-09-12T16:33:47;2.90;;;1.40;;
6825;SDS011;3451;52.476;13.316;2022-09-12T16:36:14;1.90;;;1.50;;